createdAt,value
2022-10-29T00:11:07.506Z,15
2022-10-29T00:40:04.153Z,16
2022-10-29T01:08:59.338Z,14
2022-10-29T01:37:48.006Z,13
2022-10-29T02:06:40.621Z,14
2022-10-29T02:34:55.175Z,13
2022-10-29T03:03:50.032Z,13
2022-10-29T03:32:43.009Z,11
2022-10-29T04:01:38.149Z,13
2022-10-29T04:30:16.452Z,13
2022-10-29T04:59:20.820Z,14
2022-10-29T05:28:20.627Z,13
2022-10-29T05:57:10.607Z,13
2022-10-29T06:26:11.640Z,13
2022-10-29T06:54:58.250Z,13
2022-10-29T07:23:53.249Z,13
2022-10-29T07:53:04.504Z,13
2022-10-29T08:22:14.349Z,13
2022-10-29T08:51:03.255Z,16
2022-10-29T09:19:50.762Z,13
2022-10-29T09:48:39.983Z,13
2022-10-29T10:17:57.383Z,13
2022-10-29T10:47:01.129Z,13
2022-10-29T11:16:01.816Z,14
2022-10-29T11:45:25.185Z,14
2022-10-29T12:14:03.824Z,14
2022-10-29T12:43:01.262Z,16
2022-10-29T13:11:57.395Z,16
2022-10-29T13:40:50.900Z,14
2022-10-29T14:10:06.469Z,16
2022-10-29T14:38:56.248Z,15
2022-10-29T15:07:51.541Z,17
2022-10-29T15:36:42.630Z,16
2022-10-29T16:05:32.103Z,19
2022-10-29T16:34:22.266Z,20
2022-10-29T17:02:51.727Z,26
2022-10-29T17:31:38.144Z,29
2022-10-29T18:00:36.383Z,28
2022-10-29T18:29:35.050Z,26
2022-10-29T18:58:25.731Z,27
2022-10-29T19:27:20.986Z,24
2022-10-29T19:56:16.487Z,19
2022-10-29T20:25:09.295Z,15
2022-10-29T20:54:08.675Z,14
2022-10-29T21:23:10.437Z,15
2022-10-29T21:51:53.367Z,14
2022-10-29T22:20:44.888Z,16
2022-10-29T22:49:44.198Z,14
2022-10-29T23:18:56.958Z,14
2022-10-29T23:47:53.239Z,16
